Time;durP1;ratioP1;P1;durP2;ratioP2;P2;SDS_P1;SDS_P2;PMS_P1;PMS_P2;Temp;Humidity;BMP_temperature;BMP_pressure;BME280_temperature;BME280_humidity;BME280_pressure;Samples;Min_cycle;Max_cycle;Signal;HPM_P1;HPM_P2
2022/10/24 00:02:18;;;;;;;13.83;2.63;;;;;;;;;;5096046;28;20400;-69
2022/10/24 00:04:44;;;;;;;6.73;2.13;;;;;;;;;;5095890;28;20051;-69
2022/10/24 00:07:10;;;;;;;8.70;3.23;;;;;;;;;;5096156;28;20509;-69
2022/10/24 00:09:37;;;;;;;7.87;2.33;;;;;;;;;;5094702;28;20552;-70
2022/10/24 00:12:03;;;;;;;8.67;2.40;;;;;;;;;;5095839;28;20480;-69
2022/10/24 00:14:30;;;;;;;6.43;2.37;;;;;;;;;;5095562;28;20079;-70
2022/10/24 00:16:56;;;;;;;7.67;2.57;;;;;;;;;;5095797;28;20055;-69
2022/10/24 00:19:22;;;;;;;11.87;2.67;;;;;;;;;;5095434;28;20048;-70
2022/10/24 00:21:48;;;;;;;7.60;2.50;;;;;;;;;;5096026;28;20365;-69
2022/10/24 00:24:14;;;;;;;4.97;2.30;;;;;;;;;;5095723;28;20054;-69
2022/10/24 00:26:40;;;;;;;8.30;2.13;;;;;;;;;;5095327;28;20381;-69
2022/10/24 00:29:06;;;;;;;8.27;2.33;;;;;;;;;;5095774;28;20419;-69
2022/10/24 00:31:32;;;;;;;7.83;2.47;;;;;;;;;;5095192;28;20048;-69
2022/10/24 00:33:59;;;;;;;10.50;2.40;;;;;;;;;;5095698;28;20408;-69
2022/10/24 00:36:26;;;;;;;10.10;2.90;;;;;;;;;;5095141;28;20048;-69
2022/10/24 00:38:53;;;;;;;7.50;2.60;;;;;;;;;;5095427;28;20051;-69
2022/10/24 00:41:21;;;;;;;8.03;2.33;;;;;;;;;;5095326;28;20363;-69
2022/10/24 00:43:47;;;;;;;10.60;2.33;;;;;;;;;;5095013;28;20083;-70
2022/10/24 00:46:14;;;;;;;6.90;2.43;;;;;;;;;;5095408;28;20087;-69
2022/10/24 00:48:45;;;;;;;6.97;2.00;;;;;;;;;;5094886;28;20044;-70
2022/10/24 00:51:20;;;;;;;7.13;2.27;;;;;;;;;;5095232;28;20040;-69
2022/10/24 00:53:46;;;;;;;;;;;;;;;;;;5095304;28;20102;-69
2022/10/24 00:56:13;;;;;;;6.07;2.27;;;;;;;;;;5095023;28;20299;-70
2022/10/24 00:58:41;;;;;;;6.53;2.10;;;;;;;;;;5094736;28;20075;-69
2022/10/24 01:01:07;;;;;;;11.60;2.80;;;;;;;;;;5094865;28;20040;-69
2022/10/24 01:03:34;;;;;;;6.20;2.07;;;;;;;;;;5094614;28;20040;-69
2022/10/24 01:06:00;;;;;;;8.90;2.10;;;;;;;;;;5094825;28;20044;-69
2022/10/24 01:08:36;;;;;;;6.57;2.20;;;;;;;;;;5094838;28;20051;-69
2022/10/24 01:11:02;;;;;;;8.57;2.50;;;;;;;;;;5094524;28;20499;-69
2022/10/24 01:13:35;;;;;;;8.13;2.50;;;;;;;;;;5094488;28;20048;-70
2022/10/24 01:16:12;;;;;;;9.20;2.30;;;;;;;;;;5094642;28;20044;-69
2022/10/24 01:18:48;;;;;;;6.77;2.43;;;14.50;99.90;;;;;;5094319;28;20048;-69
2022/10/24 01:21:35;;;;;;;12.40;2.83;;;14.50;99.90;;;;;;5094384;28;20052;-69
2022/10/24 01:24:10;;;;;;;10.63;3.37;;;;;;;;;;5094662;28;20119;-69
2022/10/24 01:27:03;;;;;;;8.20;2.97;;;;;;;;;;5094205;28;20040;-69
2022/10/24 01:29:32;;;;;;;7.67;2.17;;;;;;;;;;5091031;28;20399;-73
2022/10/24 01:32:20;;;;;;;9.33;3.07;;;14.60;99.90;;;;;;5094405;28;20066;-69
2022/10/24 01:34:49;;;;;;;9.13;2.57;;;14.50;99.90;;;;;;5094462;28;20106;-69
2022/10/24 01:37:21;;;;;;;11.10;2.33;;;14.50;99.90;;;;;;5094255;28;20036;-69
2022/10/24 01:39:51;;;;;;;8.60;2.63;;;14.60;99.90;;;;;;5094049;28;20090;-69
2022/10/24 01:42:20;;;;;;;7.93;2.60;;;14.70;99.90;;;;;;5094363;28;20105;-69
2022/10/24 01:44:50;;;;;;;6.87;2.40;;;14.70;99.90;;;;;;5093870;28;20091;-69
2022/10/24 01:47:29;;;;;;;8.07;2.60;;;14.70;99.90;;;;;;5094117;28;20051;-69
2022/10/24 01:49:59;;;;;;;10.60;2.60;;;14.70;99.90;;;;;;5093953;28;20060;-69
2022/10/24 01:52:30;;;;;;;6.67;2.20;;;14.70;99.90;;;;;;5092733;28;20446;-69
2022/10/24 01:54:56;;;;;;;6.90;2.90;;;14.70;99.90;;;;;;5093754;28;20044;-69
2022/10/24 01:57:29;;;;;;;6.90;2.70;;;14.70;99.90;;;;;;5093899;28;20040;-69
2022/10/24 01:59:55;;;;;;;10.20;3.13;;;14.70;99.90;;;;;;5093586;28;20044;-69
2022/10/24 02:02:29;;;;;;;9.80;2.83;;;14.80;99.90;;;;;;5093833;28;20044;-69
2022/10/24 02:05:04;;;;;;;8.47;2.80;;;14.80;99.90;;;;;;5093623;28;20047;-69
2022/10/24 02:07:32;;;;;;;9.73;3.63;;;14.80;99.90;;;;;;5093762;28;20048;-69
2022/10/24 02:10:17;;;;;;;12.47;2.90;;;14.80;99.90;;;;;;5093643;28;20052;-69
2022/10/24 02:12:49;;;;;;;7.35;2.53;;;14.80;99.90;;;;;;5093524;28;20040;-69
2022/10/24 02:15:29;;;;;;;11.87;3.37;;;14.80;99.90;;;;;;5092923;28;20101;-69
2022/10/24 02:17:56;;;;;;;11.57;3.23;;;14.80;99.90;;;;;;5093045;28;20495;-69
2022/10/24 02:20:28;;;;;;;13.90;3.13;;;14.80;99.90;;;;;;5093317;28;20059;-69
2022/10/24 02:23:04;;;;;;;11.13;3.00;;;14.80;99.90;;;;;;5093330;28;20056;-69
2022/10/24 02:25:35;;;;;;;7.33;3.10;;;14.80;99.90;;;;;;5093603;28;20043;-69
2022/10/24 02:28:11;;;;;;;10.03;3.33;;;14.80;99.90;;;;;;5093416;28;20090;-69
2022/10/24 02:30:47;;;;;;;6.47;2.80;;;14.80;99.90;;;;;;5093264;28;20043;-70
2022/10/24 02:33:15;;;;;;;12.77;2.80;;;14.80;99.90;;;;;;5093025;28;20055;-69
2022/10/24 02:35:42;;;;;;;13.23;2.60;;;14.80;99.90;;;;;;5092887;28;20047;-69
2022/10/24 02:38:17;;;;;;;9.83;3.13;;;14.80;99.90;;;;;;5093256;28;20055;-69
2022/10/24 02:40:45;;;;;;;6.13;2.67;;;14.80;99.90;;;;;;5092928;28;20507;-70
2022/10/24 02:43:12;;;;;;;7.57;2.47;;;14.80;99.90;;;;;;5093218;28;20044;-69
2022/10/24 02:45:39;;;;;;;15.40;3.27;;;14.80;99.90;;;;;;5092946;28;20433;-70
2022/10/24 02:48:10;;;;;;;8.23;2.90;;;14.80;99.90;;;;;;5093129;28;20131;-69
2022/10/24 02:50:38;;;;;;;8.73;3.13;;;14.80;99.90;;;;;;5093284;28;20389;-69
2022/10/24 02:53:04;;;;;;;10.40;2.97;;;14.80;99.90;;;;;;5093252;28;20043;-69
2022/10/24 02:55:30;;;;;;;8.50;2.97;;;14.80;99.90;;;;;;5092973;28;20055;-69
2022/10/24 02:57:55;;;;;;;7.47;3.00;;;14.80;99.90;;;;;;5075049;28;20218;-69
2022/10/24 03:00:21;;;;;;;7.73;2.70;;;14.80;99.90;;;;;;5092928;28;20044;-69
2022/10/24 03:02:47;;;;;;;8.80;2.80;;;14.80;99.90;;;;;;5091565;28;20137;-69
2022/10/24 03:05:13;;;;;;;10.10;3.27;;;14.80;99.90;;;;;;5092978;28;20075;-69
2022/10/24 03:07:39;;;;;;;7.03;2.80;;;14.80;99.90;;;;;;5093002;28;20048;-69
2022/10/24 03:10:05;;;;;;;8.50;2.77;;;14.90;99.90;;;;;;5091489;28;20044;-69
2022/10/24 03:12:30;;;;;;;7.97;2.80;;;14.80;99.90;;;;;;5091510;28;20442;-69
2022/10/24 03:14:56;;;;;;;12.90;2.60;;;14.80;99.90;;;;;;5092897;28;20051;-69
2022/10/24 03:17:22;;;;;;;9.80;2.80;;;14.80;99.90;;;;;;5092958;28;20088;-69
2022/10/24 03:19:48;;;;;;;10.67;2.90;;;14.70;99.90;;;;;;5092490;28;20040;-69
2022/10/24 03:22:13;;;;;;;7.67;3.43;;;14.70;99.90;;;;;;5092965;28;20058;-69
2022/10/24 03:24:39;;;;;;;10.10;2.70;;;14.70;99.90;;;;;;5092926;28;20051;-69
2022/10/24 03:27:05;;;;;;;11.33;2.80;;;14.70;99.90;;;;;;5092714;28;20086;-69
2022/10/24 03:29:30;;;;;;;12.17;2.43;;;14.60;99.90;;;;;;5091612;28;20040;-69
2022/10/24 03:31:56;;;;;;;9.47;2.30;;;14.60;99.90;;;;;;5092389;28;20118;-69
2022/10/24 03:34:22;;;;;;;10.27;2.93;;;14.60;99.90;;;;;;5092947;28;20104;-70
2022/10/24 03:36:47;;;;;;;10.30;2.93;;;14.70;99.90;;;;;;5092377;28;20044;-69
2022/10/24 03:39:13;;;;;;;9.50;2.57;;;14.70;99.90;;;;;;5074840;28;20460;-69
2022/10/24 03:41:39;;;;;;;12.77;3.63;;;14.70;99.90;;;;;;5092770;28;20048;-69
2022/10/24 03:44:04;;;;;;;10.30;2.40;;;14.70;99.90;;;;;;5092349;28;20054;-70
2022/10/24 03:46:30;;;;;;;7.87;2.50;;;14.70;99.90;;;;;;5078019;28;20070;-69
2022/10/24 03:48:56;;;;;;;10.90;2.47;;;14.70;99.90;;;;;;5095163;28;20097;-69
2022/10/24 03:51:22;;;;;;;9.33;2.50;;;;;;;;;;5096626;28;20055;-69
2022/10/24 03:53:47;;;;;;;10.10;2.80;;;14.70;99.90;;;;;;5095031;28;20564;-70
2022/10/24 03:56:13;;;;;;;9.23;2.80;;;14.80;99.90;;;;;;5096233;28;20044;-70
2022/10/24 03:58:39;;;;;;;15.83;2.67;;;14.70;99.90;;;;;;5096156;28;20058;-69
2022/10/24 04:01:05;;;;;;;12.43;2.60;;;;;;;;;;5095491;28;20040;-69
2022/10/24 04:03:31;;;;;;;11.90;2.87;;;;;;;;;;5096128;28;20083;-69
2022/10/24 04:05:57;;;;;;;12.00;2.77;;;;;;;;;;5095728;28;20047;-69
2022/10/24 04:08:23;;;;;;;9.03;2.73;;;14.40;99.90;;;;;;5096047;28;20052;-69
2022/10/24 04:10:49;;;;;;;9.40;2.63;;;14.50;99.90;;;;;;5094685;28;20064;-70
2022/10/24 04:13:14;;;;;;;8.37;2.73;;;14.60;99.90;;;;;;5096291;28;20047;-70
2022/10/24 04:15:40;;;;;;;6.63;2.53;;;14.50;99.90;;;;;;5094810;28;20040;-69
2022/10/24 04:18:07;;;;;;;11.70;3.07;;;14.50;99.90;;;;;;5095639;28;20055;-69
2022/10/24 04:20:33;;;;;;;15.47;3.73;;;14.50;99.90;;;;;;5095568;28;20056;-69
2022/10/24 04:22:59;;;;;;;8.73;2.43;;;14.40;99.90;;;;;;5094499;28;20094;-69
2022/10/24 04:25:25;;;;;;;8.83;2.57;;;14.40;99.90;;;;;;5095889;28;20090;-70
2022/10/24 04:27:50;;;;;;;8.57;2.50;;;14.40;99.90;;;;;;5095477;28;20044;-70
2022/10/24 04:30:17;;;;;;;8.17;3.07;;;14.30;99.90;;;;;;5094574;28;20365;-70
2022/10/24 04:32:44;;;;;;;7.83;2.60;;;14.30;99.90;;;;;;5095534;28;20048;-70
2022/10/24 04:35:10;;;;;;;8.40;2.30;;;;;;;;;;5094195;28;20601;-70
2022/10/24 04:37:36;;;;;;;9.87;2.90;;;14.30;99.90;;;;;;5095379;28;20048;-70
2022/10/24 04:40:02;;;;;;;7.40;2.13;;;;;;;;;;5095023;28;20127;-70
2022/10/24 04:42:27;;;;;;;10.10;2.70;;;14.20;99.90;;;;;;5095421;28;20048;-69
2022/10/24 04:44:53;;;;;;;9.90;2.77;;;14.20;99.90;;;;;;5095058;28;20046;-70
2022/10/24 04:47:19;;;;;;;8.00;2.60;;;14.20;99.90;;;;;;5095333;28;20044;-69
2022/10/24 04:49:44;;;;;;;11.33;2.20;;;14.20;99.90;;;;;;5094916;28;20079;-69
2022/10/24 04:52:10;;;;;;;7.90;2.37;;;14.20;99.90;;;;;;5094817;28;20125;-69
2022/10/24 04:54:36;;;;;;;8.43;2.23;;;14.20;99.90;;;;;;5095125;28;20470;-70
2022/10/24 04:57:01;;;;;;;7.70;2.40;;;14.10;99.90;;;;;;5093841;28;20044;-70
2022/10/24 04:59:27;;;;;;;9.30;2.17;;;14.10;99.90;;;;;;5095221;28;20039;-69
2022/10/24 05:01:55;;;;;;;8.63;2.13;;;14.10;99.90;;;;;;5093531;28;20384;-70
2022/10/24 05:04:21;;;;;;;8.77;2.10;;;14.10;99.90;;;;;;5095055;28;20048;-69
2022/10/24 05:06:47;;;;;;;7.60;2.43;;;;;;;;;;5094865;28;20484;-69
2022/10/24 05:09:13;;;;;;;15.53;2.90;;;14.10;99.90;;;;;;5094578;28;20040;-69
2022/10/24 05:11:40;;;;;;;6.63;2.40;;;;;;;;;;5094409;28;20491;-69
2022/10/24 05:14:06;;;;;;;7.73;2.23;;;14.00;99.90;;;;;;5094504;28;20484;-70
2022/10/24 05:16:31;;;;;;;8.77;2.13;;;14.10;99.90;;;;;;5094675;28;20044;-69
2022/10/24 05:18:57;;;;;;;8.60;2.27;;;14.10;99.90;;;;;;5094472;28;20044;-70
2022/10/24 05:21:23;;;;;;;8.93;2.30;;;14.10;99.90;;;;;;5094268;28;20056;-69
2022/10/24 05:23:49;;;;;;;6.70;2.00;;;14.10;99.90;;;;;;5094566;28;20106;-69
2022/10/24 05:26:14;;;;;;;8.57;2.23;;;14.10;99.90;;;;;;5094237;28;20284;-70
2022/10/24 05:28:40;;;;;;;9.10;2.20;;;14.20;99.90;;;;;;5094415;28;20617;-70
2022/10/24 05:31:06;;;;;;;8.20;2.57;;;14.20;99.90;;;;;;5092894;28;20044;-70
2022/10/24 05:33:31;;;;;;;7.93;2.10;;;14.20;99.90;;;;;;5094449;28;20093;-70
2022/10/24 05:35:57;;;;;;;10.23;2.10;;;14.30;99.90;;;;;;5094138;28;20047;-70
2022/10/24 05:38:23;;;;;;;9.20;2.30;;;14.30;99.90;;;;;;5094310;28;20043;-69
2022/10/24 05:40:50;;;;;;;9.57;2.70;;;14.30;99.90;;;;;;5094199;28;20051;-69
2022/10/24 05:43:16;;;;;;;7.43;2.30;;;;;;;;;;5093951;28;20048;-70
2022/10/24 05:45:42;;;;;;;7.90;2.00;;;;;;;;;;5094167;28;20044;-71
2022/10/24 05:48:08;;;;;;;10.03;2.17;;;;;;;;;;5093808;28;20051;-70
2022/10/24 05:50:34;;;;;;;7.03;2.30;;;14.40;99.90;;;;;;5094161;28;20040;-70
2022/10/24 05:53:01;;;;;;;7.30;2.10;;;14.40;99.90;;;;;;5093790;28;20047;-70
2022/10/24 05:55:27;;;;;;;10.70;2.70;;;14.40;99.90;;;;;;5094090;28;20044;-70
2022/10/24 05:57:52;;;;;;;8.60;2.23;;;14.40;99.90;;;;;;5093929;28;20488;-69
2022/10/24 06:00:18;;;;;;;13.87;2.30;;;14.40;99.90;;;;;;5093590;28;20044;-70
2022/10/24 06:02:45;;;;;;;8.43;2.60;;;14.30;99.90;;;;;;5093851;28;20054;-70
2022/10/24 06:05:12;;;;;;;8.73;2.30;;;14.30;99.90;;;;;;5075640;28;20052;-72
2022/10/24 06:07:38;;;;;;;10.30;2.27;;;14.30;99.90;;;;;;5093649;28;20047;-71
2022/10/24 06:10:05;;;;;;;11.37;2.13;;;14.20;99.90;;;;;;5093499;28;20052;-72
2022/10/24 06:12:31;;;;;;;9.60;1.83;;;14.20;99.90;;;;;;5093377;28;20044;-76
2022/10/24 06:14:58;;;;;;;9.17;2.23;;;14.20;99.90;;;;;;5092248;28;20063;-70
2022/10/24 06:17:25;;;;;;;8.63;2.40;;;14.20;99.90;;;;;;5093195;28;20285;-70
2022/10/24 06:19:50;;;;;;;8.97;1.90;;;14.20;99.90;;;;;;5093133;28;20043;-70
2022/10/24 06:22:17;;;;;;;9.53;1.90;;;14.20;99.90;;;;;;5092946;28;20063;-70
2022/10/24 06:24:42;;;;;;;8.80;1.90;;;14.20;99.90;;;;;;5093584;28;20047;-70
2022/10/24 06:27:08;;;;;;;10.97;1.83;;;14.20;99.90;;;;;;5093263;28;20507;-70
2022/10/24 06:29:34;;;;;;;8.03;2.43;;;14.20;99.90;;;;;;5093485;28;20044;-70
2022/10/24 06:32:00;;;;;;;10.93;1.83;;;14.30;99.90;;;;;;5093499;28;20043;-70
2022/10/24 06:34:26;;;;;;;9.60;1.90;;;14.30;99.90;;;;;;5093316;28;20484;-70
2022/10/24 06:36:51;;;;;;;7.70;1.90;;;14.30;99.90;;;;;;5093438;28;20391;-70
2022/10/24 06:39:17;;;;;;;8.83;2.27;;;14.40;99.90;;;;;;5092219;28;20165;-70
2022/10/24 06:41:43;;;;;;;10.67;2.53;;;14.40;99.90;;;;;;5093417;28;20083;-70
2022/10/24 06:44:08;;;;;;;12.60;2.10;;;14.50;99.90;;;;;;5093164;28;20044;-70
2022/10/24 06:46:34;;;;;;;10.77;1.87;;;14.40;99.90;;;;;;5093601;28;20072;-70
2022/10/24 06:49:00;;;;;;;9.77;1.33;;;14.50;99.90;;;;;;5093293;28;20458;-70
2022/10/24 06:51:25;;;;;;;10.47;1.80;;;14.50;99.90;;;;;;5091882;28;20586;-70
2022/10/24 06:53:51;;;;;;;8.40;1.83;;;14.50;99.90;;;;;;5093008;28;20079;-70
2022/10/24 06:56:17;;;;;;;11.97;1.93;;;14.60;99.90;;;;;;5092987;28;20044;-70
2022/10/24 06:58:43;;;;;;;10.83;2.03;;;14.60;99.90;;;;;;5093223;28;20052;-70
2022/10/24 07:01:11;;;;;;;10.63;1.80;;;14.60;99.90;;;;;;5092905;28;20090;-70
2022/10/24 07:03:37;;;;;;;8.30;2.00;;;14.60;99.90;;;;;;5093271;28;20040;-70
2022/10/24 07:06:09;;;;;;;9.30;2.17;;;14.70;99.90;;;;;;5092191;28;20071;-70
2022/10/24 07:08:34;;;;;;;7.77;1.63;;;14.70;99.90;;;;;;5093068;28;20040;-70
2022/10/24 07:11:00;;;;;;;8.10;2.20;;;14.80;99.90;;;;;;5093146;28;20044;-70
2022/10/24 07:13:26;;;;;;;11.90;2.60;;;14.80;99.90;;;;;;5092893;28;20134;-70
2022/10/24 07:15:54;;;;;;;8.03;1.93;;;14.80;99.90;;;;;;5093062;28;20104;-70
2022/10/24 07:18:20;;;;;;;7.73;1.90;;;14.80;99.90;;;;;;5092802;28;20050;-70
2022/10/24 07:20:46;;;;;;;8.73;1.73;;;14.80;99.90;;;;;;5094998;28;20102;-70
2022/10/24 07:23:11;;;;;;;8.57;2.10;;;14.90;99.90;;;;;;5096806;28;20144;-70
2022/10/24 07:25:38;;;;;;;14.30;2.10;;;14.90;99.90;;;;;;5097028;28;20044;-70
2022/10/24 07:28:06;;;;;;;8.93;2.00;;;14.90;99.90;;;;;;5096073;28;20044;-70
2022/10/24 07:30:32;;;;;;;8.27;2.03;;;15.00;99.90;;;;;;5096751;28;20044;-70
2022/10/24 07:32:58;;;;;;;10.40;2.37;;;15.10;99.90;;;;;;5096933;28;20044;-70
2022/10/24 07:35:23;;;;;;;9.73;1.83;;;15.10;99.90;;;;;;5096660;28;20522;-70
2022/10/24 07:37:50;;;;;;;9.37;1.63;;;15.20;99.90;;;;;;5096785;28;20052;-70
2022/10/24 07:40:16;;;;;;;7.87;2.33;;;15.10;99.90;;;;;;5096161;28;20488;-70
2022/10/24 07:42:42;;;;;;;8.07;1.87;;;15.10;99.90;;;;;;5096867;28;20047;-70
2022/10/24 07:45:08;;;;;;;8.30;1.60;;;15.10;99.90;;;;;;5096806;28;20044;-70
2022/10/24 07:47:34;;;;;;;8.20;1.80;;;15.10;99.90;;;;;;5096146;28;20496;-70
2022/10/24 07:50:00;;;;;;;10.30;2.43;;;15.10;99.90;;;;;;5096696;28;20087;-70
2022/10/24 07:52:25;;;;;;;7.60;1.80;;;15.20;99.90;;;;;;5096345;28;20056;-70
2022/10/24 07:54:54;;;;;;;7.43;1.77;;;15.10;99.90;;;;;;5096486;28;20044;-70
2022/10/24 07:57:20;;;;;;;6.93;1.80;;;15.10;99.90;;;;;;5095913;28;20404;-70
2022/10/24 07:59:46;;;;;;;8.47;2.10;;;15.10;99.90;;;;;;5096300;28;20097;-70
2022/10/24 08:02:13;;;;;;;10.07;2.30;;;15.20;99.90;;;;;;5095094;28;20048;-71
2022/10/24 08:04:39;;;;;;;5.33;1.30;;;15.20;99.90;;;;;;5096215;28;20488;-70
2022/10/24 08:07:11;;;;;;;9.40;2.20;;;15.20;99.90;;;;;;5096262;28;20048;-70
2022/10/24 08:09:39;;;;;;;11.33;2.43;;;15.20;99.90;;;;;;5096022;28;20173;-70
2022/10/24 08:12:04;;;;;;;8.00;1.97;;;15.30;99.90;;;;;;5096169;28;20130;-70
2022/10/24 08:14:30;;;;;;;12.97;1.97;;;15.30;99.90;;;;;;5095897;28;20079;-70
2022/10/24 08:16:56;;;;;;;10.10;2.27;;;15.30;99.90;;;;;;5096346;28;20055;-70
2022/10/24 08:19:22;;;;;;;10.37;2.77;;;15.40;99.90;;;;;;5095619;28;20044;-70
2022/10/24 08:21:49;;;;;;;6.80;1.70;;;15.40;99.90;;;;;;5096050;28;20132;-70
2022/10/24 08:24:15;;;;;;;11.07;1.73;;;15.30;99.90;;;;;;5095803;28;20122;-72
2022/10/24 08:26:41;;;;;;;10.77;1.73;;;15.30;99.90;;;;;;5095868;28;20051;-70
2022/10/24 08:29:10;;;;;;;9.90;2.70;;;15.20;99.90;;;;;;5094868;28;20127;-70
2022/10/24 08:31:36;;;;;;;10.80;1.90;;;15.30;99.90;;;;;;5094150;28;20055;-70
2022/10/24 08:34:04;;;;;;;6.17;2.00;;;15.30;99.90;;;;;;5095541;28;20383;-70
2022/10/24 08:36:34;;;;;;;9.07;2.67;;;15.30;99.90;;;;;;5095336;28;20541;-70
2022/10/24 08:39:02;;;;;;;7.90;1.80;;;15.30;99.90;;;;;;5095591;28;20105;-70
2022/10/24 08:41:45;;;;;;;8.37;2.03;;;15.40;99.90;;;;;;5095295;28;20153;-70
2022/10/24 08:44:26;;;;;;;7.07;1.30;;;15.50;99.90;;;;;;5094788;28;20090;-70
2022/10/24 08:47:18;;;;;;;9.83;1.87;;;15.60;99.90;;;;;;5095594;28;20052;-70
2022/10/24 08:50:05;;;;;;;9.43;2.63;;;15.70;99.90;;;;;;5084838;28;20506;-70
2022/10/24 08:52:40;;;;;;;9.47;2.07;;;15.70;99.90;;;;;;5095290;28;20149;-70
2022/10/24 08:55:16;;;;;;;6.13;1.60;;;15.70;99.90;;;;;;5095507;28;20052;-70
2022/10/24 08:57:46;;;;;;;8.77;1.93;;;15.80;99.90;;;;;;5093913;28;20044;-70
2022/10/24 09:00:37;;;;;;;8.77;1.80;;;15.80;99.90;;;;;;5095163;28;20040;-70
2022/10/24 09:03:12;;;;;;;11.60;2.90;;;15.80;99.90;;;;;;5095437;28;20129;-70
2022/10/24 09:05:47;;;;;;;12.95;2.30;;;15.80;99.90;;;;;;5094923;28;20048;-70
2022/10/24 09:08:38;;;;;;;11.68;2.03;;;15.90;99.90;;;;;;5095195;28;20044;-70
2022/10/24 09:11:06;;;;;;;9.53;2.07;;;15.90;99.90;;;;;;5095017;28;20130;-70
2022/10/24 09:13:36;;;;;;;10.37;2.40;;;15.90;99.90;;;;;;5094777;28;20052;-70
2022/10/24 09:16:02;;;;;;;8.90;2.17;;;15.90;99.90;;;;;;5094935;28;20044;-70
2022/10/24 09:18:36;;;;;;;8.63;1.70;;;15.90;99.90;;;;;;5094743;28;20084;-71
2022/10/24 09:21:05;;;;;;;7.60;1.90;;;15.90;99.90;;;;;;5094487;28;20407;-70
2022/10/24 09:23:33;;;;;;;10.33;2.47;;;15.90;99.90;;;;;;5093613;28;20114;-70
2022/10/24 09:25:59;;;;;;;12.73;2.03;;;15.90;99.90;;;;;;5094913;28;20071;-70
2022/10/24 09:28:25;;;;;;;8.57;1.47;;;15.90;99.90;;;;;;5094425;28;20091;-70
2022/10/24 09:30:51;;;;;;;16.20;2.70;;;16.00;99.90;;;;;;5094669;28;20105;-70
2022/10/24 09:33:30;;;;;;;9.90;1.83;;;16.00;99.90;;;;;;5094552;28;20051;-70
2022/10/24 09:35:58;;;;;;;8.87;2.20;;;16.10;99.90;;;;;;5094531;28;20097;-70
2022/10/24 09:38:33;;;;;;;11.17;2.27;;;16.10;99.90;;;;;;5094247;28;20044;-71
2022/10/24 09:41:03;;;;;;;9.02;2.05;;;16.20;99.90;;;;;;5094347;28;20062;-70
2022/10/24 09:43:45;;;;;;;10.63;2.00;;;16.20;99.90;;;;;;5093749;28;20043;-70
2022/10/24 09:46:20;;;;;;;8.07;1.80;;;16.20;99.90;;;;;;5093621;28;20457;-70
2022/10/24 09:48:49;;;;;;;9.95;2.42;;;16.10;99.90;;;;;;5094090;28;20048;-70
2022/10/24 09:51:23;;;;;;;10.07;1.63;;;16.10;99.90;;;;;;5094241;28;20127;-70
2022/10/24 09:54:19;;;;;;;8.82;2.15;;;16.10;99.90;;;;;;5094332;28;20087;-70
2022/10/24 09:56:47;;;;;;;11.98;2.42;;;16.10;99.90;;;;;;5094266;28;20407;-70
2022/10/24 09:59:47;;;;;;;10.50;2.03;;;16.10;99.90;;;;;;5094133;28;20062;-70
2022/10/24 10:02:27;;;;;;;9.40;2.17;;;16.20;99.90;;;;;;5088964;28;20087;-70
2022/10/24 10:05:17;;;;;;;8.90;2.23;;;16.30;99.90;;;;;;5093374;28;20113;-70
2022/10/24 10:07:47;;;;;;;11.20;1.67;;;16.40;99.90;;;;;;5093795;28;20040;-70
2022/10/24 10:10:29;;;;;;;6.73;1.80;;;16.40;99.90;;;;;;5094167;28;20371;-70
2022/10/24 10:13:18;;;;;;;10.10;1.90;;;16.30;99.90;;;;;;5094293;28;20424;-70
2022/10/24 10:15:48;;;;;;;8.37;2.47;;;16.20;99.90;;;;;;5092460;28;20056;-70
2022/10/24 10:18:26;;;;;;;7.30;1.70;;;16.20;99.90;;;;;;5093868;28;20047;-70
2022/10/24 10:21:04;;;;;;;10.47;2.03;;;16.10;99.90;;;;;;5093523;28;20059;-70
2022/10/24 10:23:35;;;;;;;9.80;2.30;;;16.10;99.90;;;;;;5073209;28;20048;-70
2022/10/24 10:26:22;;;;;;;7.53;2.00;;;16.00;99.90;;;;;;5073379;28;20469;-70
2022/10/24 10:28:55;;;;;;;9.03;1.73;;;16.00;99.90;;;;;;5073191;28;20040;-70
2022/10/24 10:31:42;;;;;;;8.03;1.83;;;15.90;99.90;;;;;;5073125;28;20567;-70
2022/10/24 10:34:15;;;;;;;11.10;1.80;;;15.80;99.90;;;;;;5073273;28;20059;-70
2022/10/24 10:37:04;;;;;;;8.17;1.70;;;15.80;99.90;;;;;;5073104;28;20114;-70
2022/10/24 10:39:38;;;;;;;10.10;2.40;;;15.80;99.90;;;;;;5073096;28;20056;-71
2022/10/24 10:42:13;;;;;;;10.50;2.03;;;15.80;99.90;;;;;;5073285;28;20040;-70
2022/10/24 10:45:07;;;;;;;9.63;2.28;;;15.80;99.90;;;;;;5073049;28;20052;-70
2022/10/24 10:47:53;;;;;;;12.40;2.20;;;15.80;99.90;;;;;;5073024;28;20102;-70
2022/10/24 10:50:27;;;;;;;;;;;15.80;99.90;;;;;;5073580;28;20064;-70
2022/10/24 10:52:59;;;;;;;12.00;2.40;;;15.80;99.90;;;;;;5072881;28;20269;-70
2022/10/24 10:55:35;;;;;;;11.00;2.43;;;15.90;99.90;;;;;;5072506;28;20040;-70
2022/10/24 10:58:27;;;;;;;10.30;2.00;;;15.90;99.90;;;;;;5073035;28;20055;-70
2022/10/24 11:01:19;;;;;;;11.43;2.10;;;15.80;99.90;;;;;;5072688;28;20362;-70
2022/10/24 11:03:57;;;;;;;9.07;2.30;;;15.80;99.90;;;;;;5071233;28;20049;-70
2022/10/24 11:06:45;;;;;;;15.87;2.70;;;15.90;99.90;;;;;;5073244;28;20044;-70
2022/10/24 11:09:27;;;;;;;12.13;2.33;;;15.90;99.90;;;;;;5073032;28;20084;-70
2022/10/24 11:12:20;;;;;;;13.57;2.30;;;16.00;99.90;;;;;;5071859;28;20073;-70
2022/10/24 11:15:28;;;;;;;17.17;2.57;;;16.10;99.90;;;;;;5072717;28;20051;-70
2022/10/24 11:18:21;;;;;;;8.57;2.10;;;16.20;99.90;;;;;;5072157;28;20131;-70
2022/10/24 11:21:02;;;;;;;9.97;2.37;;;16.20;99.90;;;;;;5072302;28;20408;-70
2022/10/24 11:23:54;;;;;;;10.17;2.30;;;16.10;99.90;;;;;;5072856;28;20048;-70
2022/10/24 11:26:26;;;;;;;12.90;2.87;;;16.10;99.90;;;;;;5068842;28;20056;-70
2022/10/24 11:28:57;;;;;;;9.83;1.80;;;16.00;99.90;;;;;;5072487;28;20063;-70
2022/10/24 11:31:44;;;;;;;9.80;2.23;;;16.00;99.90;;;;;;5072948;28;20055;-70
2022/10/24 11:34:31;;;;;;;10.67;2.27;;;16.00;99.90;;;;;;5073047;28;20049;-70
2022/10/24 11:37:12;;;;;;;11.60;2.30;;;16.00;99.90;;;;;;5072427;28;20496;-70
2022/10/24 11:39:46;;;;;;;10.13;2.20;;;16.00;99.90;;;;;;5072418;28;20056;-70
2022/10/24 11:42:20;;;;;;;10.47;2.10;;;15.90;99.90;;;;;;5072670;28;20053;-70
2022/10/24 11:45:03;;;;;;;13.03;2.30;;;15.90;99.90;;;;;;5071145;28;20055;-70
2022/10/24 11:47:44;;;;;;;17.40;2.67;;;15.90;99.90;;;;;;5072636;28;20040;-70
2022/10/24 11:50:29;;;;;;;10.73;2.20;;;15.90;99.90;;;;;;5072567;28;20044;-70
2022/10/24 11:53:01;;;;;;;10.90;2.57;;;15.90;99.90;;;;;;5072299;28;20139;-70
2022/10/24 11:55:36;;;;;;;11.00;3.33;;;15.90;99.90;;;;;;5072473;28;20052;-70
2022/10/24 11:58:04;;;;;;;11.32;2.50;;;16.00;99.90;;;;;;5072435;28;20088;-70
2022/10/24 12:00:36;;;;;;;8.23;2.07;;;15.90;99.90;;;;;;5072282;28;20058;-70
2022/10/24 12:03:18;;;;;;;10.43;1.93;;;15.90;99.90;;;;;;5072447;28;20049;-70
2022/10/24 12:06:08;;;;;;;9.93;2.10;;;16.00;99.90;;;;;;5071682;28;20469;-70
2022/10/24 12:08:37;;;;;;;8.90;1.93;;;16.00;99.90;;;;;;5075915;28;20337;-70
2022/10/24 12:11:11;;;;;;;14.03;2.40;;;16.10;99.90;;;;;;5075692;28;20052;-70
2022/10/24 12:13:49;;;;;;;8.30;1.70;;;16.20;99.90;;;;;;5075752;28;20052;-70
2022/10/24 12:16:17;;;;;;;9.47;2.13;;;16.20;99.90;;;;;;5076023;28;20119;-70
2022/10/24 12:19:05;;;;;;;12.47;2.50;;;16.20;99.90;;;;;;5075501;28;20137;-70
2022/10/24 12:21:38;;;;;;;9.30;2.07;;;16.20;99.90;;;;;;5075428;28;20499;-70
2022/10/24 12:24:05;;;;;;;14.33;2.37;;;16.20;99.90;;;;;;5075923;28;20049;-70
2022/10/24 12:26:33;;;;;;;11.53;2.67;;;16.30;99.90;;;;;;5075672;28;20040;-70
2022/10/24 12:29:01;;;;;;;7.70;1.80;;;16.30;99.90;;;;;;5074486;28;20045;-70
2022/10/24 12:31:30;;;;;;;11.30;2.30;;;16.40;99.90;;;;;;5075528;28;20048;-70
2022/10/24 12:34:14;;;;;;;13.60;2.33;;;16.40;99.90;;;;;;5075366;28;20102;-70
2022/10/24 12:37:17;;;;;;;14.17;3.23;;;16.50;99.90;;;;;;5075415;28;20050;-70
2022/10/24 12:39:50;;;;;;;7.57;1.83;;;16.50;99.90;;;;;;5075155;28;20080;-71
2022/10/24 12:42:19;;;;;;;10.20;2.30;;;16.60;99.90;;;;;;5074886;28;20374;-70
2022/10/24 12:44:46;;;;;;;7.33;1.80;;;16.60;99.90;;;;;;5074951;28;20092;-70
2022/10/24 12:47:33;;;;;;;9.00;2.17;;;16.50;99.90;;;;;;5075262;28;20052;-70
2022/10/24 12:50:21;;;;;;;9.97;1.87;;;16.50;99.90;;;;;;5074964;28;20424;-70
2022/10/24 12:52:47;;;;;;;8.40;2.00;;;16.40;99.90;;;;;;5074570;28;20049;-70
2022/10/24 12:55:47;;;;;;;12.27;2.40;;;16.30;99.90;;;;;;5075138;28;20060;-70
2022/10/24 12:58:36;;;;;;;8.00;1.77;;;16.30;99.90;;;;;;5070586;28;20515;-70
2022/10/24 13:01:33;;;;;;;11.83;2.27;;;16.30;99.90;;;;;;5075038;28;20041;-70
2022/10/24 13:04:17;;;;;;;8.40;2.00;;;16.30;99.90;;;;;;5074822;28;20079;-70
2022/10/24 13:07:01;;;;;;;8.83;2.17;;;16.20;99.90;;;;;;5074669;28;20563;-70
2022/10/24 13:09:39;;;;;;;9.67;2.43;;;16.30;99.90;;;;;;5073696;28;20063;-70
2022/10/24 13:12:04;;;;;;;12.60;2.80;;;16.30;99.90;;;;;;5074358;28;20579;-70
2022/10/24 13:14:45;;;;;;;10.33;2.40;;;16.20;99.90;;;;;;5074706;28;20048;-70
2022/10/24 13:17:46;;;;;;;11.87;2.33;;;16.30;99.90;;;;;;5074415;28;20435;-70
2022/10/24 13:20:28;;;;;;;9.30;2.47;;;16.30;99.90;;;;;;5074563;28;20097;-70